Secretary, Maryland
Current Conditions -  °F | °C
As of 7:14 AM on Friday 28 Nov 2014 (Local Time) from KCGE Reporting Station
Clear Clear  
Wind Chill: 28°   Ceiling: Unl
Heat Index: 36°   Visibility: 10mi
Dew Point: 25°   Wind: 10mph
Humidity: 65%   Direction: 310°NW
Pressure: 30.25"   Gusts: NA
Location:  38.61°N, 75.95°W
Report Text: KCGE 281214Z AUTO 31009KT 10SM CLR 02/M04 A3025 RMK AO1
Loading
Personal Weather Stations






























Interactive Weather Map New forecast layout! Learn more

10-Day Weather Forecast

Advertisements
Track Severe Weather on mobile